sensor_id;sensor_type;location;lat;lon;timestamp;P1;durP1;ratioP1;P2;durP2;ratioP2
41101;SDS011;26845;50.190;19.178;2022-09-23T00:01:11;19.90;;;11.60;;
41101;SDS011;26845;50.190;19.178;2022-09-23T00:03:40;18.10;;;11.55;;
41101;SDS011;26845;50.190;19.178;2022-09-23T00:06:15;17.70;;;12.37;;
41101;SDS011;26845;50.190;19.178;2022-09-23T00:08:47;19.48;;;12.63;;
41101;SDS011;26845;50.190;19.178;2022-09-23T00:11:16;18.00;;;12.73;;
41101;SDS011;26845;50.190;19.178;2022-09-23T00:13:46;18.95;;;12.28;;
41101;SDS011;26845;50.190;19.178;2022-09-23T00:16:17;20.85;;;13.10;;
41101;SDS011;26845;50.190;19.178;2022-09-23T00:18:48;20.35;;;12.53;;
41101;SDS011;26845;50.190;19.178;2022-09-23T00:21:17;18.67;;;12.05;;
41101;SDS011;26845;50.190;19.178;2022-09-23T00:23:46;24.30;;;12.13;;
41101;SDS011;26845;50.190;19.178;2022-09-23T00:26:14;18.95;;;12.00;;
41101;SDS011;26845;50.190;19.178;2022-09-23T00:28:46;17.73;;;12.00;;
41101;SDS011;26845;50.190;19.178;2022-09-23T00:31:15;21.15;;;12.70;;
41101;SDS011;26845;50.190;19.178;2022-09-23T00:33:45;15.43;;;11.78;;
41101;SDS011;26845;50.190;19.178;2022-09-23T00:36:14;20.27;;;12.88;;
41101;SDS011;26845;50.190;19.178;2022-09-23T00:38:41;22.95;;;13.98;;
41101;SDS011;26845;50.190;19.178;2022-09-23T00:41:09;21.27;;;13.32;;
41101;SDS011;26845;50.190;19.178;2022-09-23T00:43:47;21.23;;;12.47;;
41101;SDS011;26845;50.190;19.178;2022-09-23T00:46:40;20.75;;;12.70;;
41101;SDS011;26845;50.190;19.178;2022-09-23T00:49:10;24.45;;;13.43;;
41101;SDS011;26845;50.190;19.178;2022-09-23T00:51:58;20.45;;;13.20;;
41101;SDS011;26845;50.190;19.178;2022-09-23T00:54:29;21.30;;;13.68;;
41101;SDS011;26845;50.190;19.178;2022-09-23T00:56:56;20.90;;;13.80;;
41101;SDS011;26845;50.190;19.178;2022-09-23T00:59:25;18.80;;;12.65;;
41101;SDS011;26845;50.190;19.178;2022-09-23T01:01:54;22.37;;;13.18;;
41101;SDS011;26845;50.190;19.178;2022-09-23T01:04:23;19.63;;;12.93;;
41101;SDS011;26845;50.190;19.178;2022-09-23T01:06:52;27.37;;;14.50;;
41101;SDS011;26845;50.190;19.178;2022-09-23T01:09:19;23.10;;;15.95;;
41101;SDS011;26845;50.190;19.178;2022-09-23T01:11:50;25.95;;;15.25;;
41101;SDS011;26845;50.190;19.178;2022-09-23T01:20:07;23.47;;;12.88;;
41101;SDS011;26845;50.190;19.178;2022-09-23T01:38:18;21.68;;;13.03;;
41101;SDS011;26845;50.190;19.178;2022-09-23T01:44:20;21.55;;;13.85;;
41101;SDS011;26845;50.190;19.178;2022-09-23T01:47:08;22.10;;;12.85;;
41101;SDS011;26845;50.190;19.178;2022-09-23T01:53:01;22.55;;;14.00;;
41101;SDS011;26845;50.190;19.178;2022-09-23T01:55:42;23.70;;;14.55;;
41101;SDS011;26845;50.190;19.178;2022-09-23T01:58:24;20.27;;;13.65;;
41101;SDS011;26845;50.190;19.178;2022-09-23T02:01:16;22.75;;;13.80;;
41101;SDS011;26845;50.190;19.178;2022-09-23T02:03:52;18.65;;;13.22;;
41101;SDS011;26845;50.190;19.178;2022-09-23T02:06:25;23.35;;;15.15;;
41101;SDS011;26845;50.190;19.178;2022-09-23T02:08:58;22.55;;;14.07;;
41101;SDS011;26845;50.190;19.178;2022-09-23T02:11:28;21.57;;;13.88;;
41101;SDS011;26845;50.190;19.178;2022-09-23T02:14:09;22.77;;;13.28;;
41101;SDS011;26845;50.190;19.178;2022-09-23T02:16:57;19.02;;;12.85;;
41101;SDS011;26845;50.190;19.178;2022-09-23T02:19:32;18.30;;;12.47;;
41101;SDS011;26845;50.190;19.178;2022-09-23T02:22:22;22.07;;;13.48;;
41101;SDS011;26845;50.190;19.178;2022-09-23T02:24:51;17.55;;;11.70;;
41101;SDS011;26845;50.190;19.178;2022-09-23T02:30:22;22.32;;;12.25;;
41101;SDS011;26845;50.190;19.178;2022-09-23T02:35:35;19.65;;;13.25;;
41101;SDS011;26845;50.190;19.178;2022-09-23T02:38:28;23.05;;;14.70;;
41101;SDS011;26845;50.190;19.178;2022-09-23T02:44:09;23.42;;;14.45;;
41101;SDS011;26845;50.190;19.178;2022-09-23T02:46:39;24.72;;;15.08;;
41101;SDS011;26845;50.190;19.178;2022-09-23T02:49:12;22.35;;;14.00;;
41101;SDS011;26845;50.190;19.178;2022-09-23T02:51:46;21.20;;;14.15;;
41101;SDS011;26845;50.190;19.178;2022-09-23T02:54:14;22.70;;;14.93;;
41101;SDS011;26845;50.190;19.178;2022-09-23T02:56:44;19.02;;;13.60;;
41101;SDS011;26845;50.190;19.178;2022-09-23T02:59:13;21.73;;;13.32;;
41101;SDS011;26845;50.190;19.178;2022-09-23T03:13:40;18.12;;;13.10;;
41101;SDS011;26845;50.190;19.178;2022-09-23T03:24:28;18.60;;;13.05;;
41101;SDS011;26845;50.190;19.178;2022-09-23T03:27:02;24.65;;;14.80;;
41101;SDS011;26845;50.190;19.178;2022-09-23T03:29:33;25.32;;;14.03;;
41101;SDS011;26845;50.190;19.178;2022-09-23T03:32:02;20.83;;;12.83;;
41101;SDS011;26845;50.190;19.178;2022-09-23T03:34:33;23.98;;;13.68;;
41101;SDS011;26845;50.190;19.178;2022-09-23T03:37:03;18.87;;;12.15;;
41101;SDS011;26845;50.190;19.178;2022-09-23T03:39:49;19.05;;;13.72;;
41101;SDS011;26845;50.190;19.178;2022-09-23T03:42:17;17.60;;;11.63;;
41101;SDS011;26845;50.190;19.178;2022-09-23T03:44:53;18.32;;;12.47;;
41101;SDS011;26845;50.190;19.178;2022-09-23T03:47:23;20.90;;;12.23;;
41101;SDS011;26845;50.190;19.178;2022-09-23T03:49:52;17.60;;;12.18;;
41101;SDS011;26845;50.190;19.178;2022-09-23T03:52:22;24.12;;;13.08;;
41101;SDS011;26845;50.190;19.178;2022-09-23T03:54:50;16.67;;;11.85;;
41101;SDS011;26845;50.190;19.178;2022-09-23T03:57:17;19.45;;;11.97;;
41101;SDS011;26845;50.190;19.178;2022-09-23T03:59:47;18.48;;;12.13;;
41101;SDS011;26845;50.190;19.178;2022-09-23T04:02:16;14.33;;;11.08;;
41101;SDS011;26845;50.190;19.178;2022-09-23T04:04:44;20.77;;;12.20;;
41101;SDS011;26845;50.190;19.178;2022-09-23T04:07:11;19.55;;;11.65;;
41101;SDS011;26845;50.190;19.178;2022-09-23T04:09:38;16.67;;;11.18;;
41101;SDS011;26845;50.190;19.178;2022-09-23T04:12:06;19.00;;;12.40;;
41101;SDS011;26845;50.190;19.178;2022-09-23T04:14:33;21.30;;;12.70;;
41101;SDS011;26845;50.190;19.178;2022-09-23T04:17:00;21.10;;;13.62;;
41101;SDS011;26845;50.190;19.178;2022-09-23T04:19:27;19.52;;;12.43;;
41101;SDS011;26845;50.190;19.178;2022-09-23T04:21:54;21.10;;;13.40;;
41101;SDS011;26845;50.190;19.178;2022-09-23T04:24:20;20.23;;;12.73;;
41101;SDS011;26845;50.190;19.178;2022-09-23T04:26:51;17.55;;;11.70;;
41101;SDS011;26845;50.190;19.178;2022-09-23T04:29:19;21.70;;;12.00;;
41101;SDS011;26845;50.190;19.178;2022-09-23T04:31:46;22.05;;;13.45;;
41101;SDS011;26845;50.190;19.178;2022-09-23T04:34:14;20.62;;;12.65;;
41101;SDS011;26845;50.190;19.178;2022-09-23T04:36:42;19.65;;;13.05;;
41101;SDS011;26845;50.190;19.178;2022-09-23T04:39:10;24.90;;;13.65;;
41101;SDS011;26845;50.190;19.178;2022-09-23T04:41:42;23.40;;;13.20;;
41101;SDS011;26845;50.190;19.178;2022-09-23T04:44:10;19.67;;;13.53;;
41101;SDS011;26845;50.190;19.178;2022-09-23T04:46:39;22.22;;;13.15;;
41101;SDS011;26845;50.190;19.178;2022-09-23T04:49:07;22.87;;;12.75;;
41101;SDS011;26845;50.190;19.178;2022-09-23T04:51:34;19.75;;;12.35;;
41101;SDS011;26845;50.190;19.178;2022-09-23T04:54:00;21.45;;;13.93;;
41101;SDS011;26845;50.190;19.178;2022-09-23T04:56:28;20.17;;;13.35;;
41101;SDS011;26845;50.190;19.178;2022-09-23T04:58:58;17.57;;;11.00;;
41101;SDS011;26845;50.190;19.178;2022-09-23T05:01:27;15.63;;;11.18;;
41101;SDS011;26845;50.190;19.178;2022-09-23T05:03:58;15.63;;;10.90;;
41101;SDS011;26845;50.190;19.178;2022-09-23T05:06:34;17.15;;;10.68;;
41101;SDS011;26845;50.190;19.178;2022-09-23T05:09:04;16.17;;;10.30;;
41101;SDS011;26845;50.190;19.178;2022-09-23T05:11:33;16.23;;;11.55;;
41101;SDS011;26845;50.190;19.178;2022-09-23T05:14:00;17.98;;;12.25;;
41101;SDS011;26845;50.190;19.178;2022-09-23T05:16:27;18.20;;;12.05;;
41101;SDS011;26845;50.190;19.178;2022-09-23T05:18:54;18.05;;;11.70;;
41101;SDS011;26845;50.190;19.178;2022-09-23T05:21:22;19.60;;;12.07;;
41101;SDS011;26845;50.190;19.178;2022-09-23T05:23:52;18.90;;;12.55;;
41101;SDS011;26845;50.190;19.178;2022-09-23T05:26:22;22.93;;;12.20;;
41101;SDS011;26845;50.190;19.178;2022-09-23T05:28:52;21.52;;;12.55;;
41101;SDS011;26845;50.190;19.178;2022-09-23T05:31:20;18.42;;;12.88;;
41101;SDS011;26845;50.190;19.178;2022-09-23T05:33:50;19.48;;;12.68;;
41101;SDS011;26845;50.190;19.178;2022-09-23T05:36:21;20.60;;;12.73;;
41101;SDS011;26845;50.190;19.178;2022-09-23T05:38:49;20.37;;;13.08;;
41101;SDS011;26845;50.190;19.178;2022-09-23T05:41:19;24.02;;;14.75;;
41101;SDS011;26845;50.190;19.178;2022-09-23T05:43:50;25.02;;;15.75;;
41101;SDS011;26845;50.190;19.178;2022-09-23T05:46:19;28.65;;;15.65;;
41101;SDS011;26845;50.190;19.178;2022-09-23T05:48:49;26.97;;;14.83;;
41101;SDS011;26845;50.190;19.178;2022-09-23T05:51:21;27.50;;;17.45;;
41101;SDS011;26845;50.190;19.178;2022-09-23T05:53:47;28.05;;;18.40;;
41101;SDS011;26845;50.190;19.178;2022-09-23T05:56:16;27.90;;;15.20;;
41101;SDS011;26845;50.190;19.178;2022-09-23T05:58:47;22.85;;;15.95;;
41101;SDS011;26845;50.190;19.178;2022-09-23T06:01:16;22.20;;;14.03;;
41101;SDS011;26845;50.190;19.178;2022-09-23T06:03:47;18.55;;;13.18;;
41101;SDS011;26845;50.190;19.178;2022-09-23T06:06:15;19.57;;;13.40;;
41101;SDS011;26845;50.190;19.178;2022-09-23T06:08:44;19.73;;;13.55;;
41101;SDS011;26845;50.190;19.178;2022-09-23T06:11:12;20.48;;;13.08;;
41101;SDS011;26845;50.190;19.178;2022-09-23T06:13:40;21.55;;;13.80;;
41101;SDS011;26845;50.190;19.178;2022-09-23T06:16:08;19.62;;;12.65;;
41101;SDS011;26845;50.190;19.178;2022-09-23T06:18:41;19.10;;;13.10;;
41101;SDS011;26845;50.190;19.178;2022-09-23T06:21:11;22.40;;;13.68;;
41101;SDS011;26845;50.190;19.178;2022-09-23T06:26:09;22.87;;;15.35;;
41101;SDS011;26845;50.190;19.178;2022-09-23T06:28:39;24.05;;;15.48;;
41101;SDS011;26845;50.190;19.178;2022-09-23T06:31:15;20.95;;;14.70;;
41101;SDS011;26845;50.190;19.178;2022-09-23T06:33:41;23.45;;;15.43;;
41101;SDS011;26845;50.190;19.178;2022-09-23T06:36:10;19.05;;;13.45;;
41101;SDS011;26845;50.190;19.178;2022-09-23T06:38:39;23.87;;;14.95;;
41101;SDS011;26845;50.190;19.178;2022-09-23T06:41:10;21.75;;;15.68;;
41101;SDS011;26845;50.190;19.178;2022-09-23T06:43:37;22.95;;;15.38;;
41101;SDS011;26845;50.190;19.178;2022-09-23T06:46:04;24.37;;;14.63;;
41101;SDS011;26845;50.190;19.178;2022-09-23T06:48:33;22.93;;;17.12;;
41101;SDS011;26845;50.190;19.178;2022-09-23T06:51:01;24.65;;;16.15;;
41101;SDS011;26845;50.190;19.178;2022-09-23T06:53:32;28.25;;;16.73;;
41101;SDS011;26845;50.190;19.178;2022-09-23T06:58:33;23.35;;;15.93;;
41101;SDS011;26845;50.190;19.178;2022-09-23T07:01:02;24.37;;;16.17;;
41101;SDS011;26845;50.190;19.178;2022-09-23T07:03:32;23.25;;;16.20;;
41101;SDS011;26845;50.190;19.178;2022-09-23T07:06:01;28.75;;;18.48;;
41101;SDS011;26845;50.190;19.178;2022-09-23T07:08:29;23.62;;;16.30;;
41101;SDS011;26845;50.190;19.178;2022-09-23T07:10:59;25.20;;;17.77;;
41101;SDS011;26845;50.190;19.178;2022-09-23T07:13:33;23.83;;;17.50;;
41101;SDS011;26845;50.190;19.178;2022-09-23T07:16:02;24.90;;;18.37;;
41101;SDS011;26845;50.190;19.178;2022-09-23T07:18:30;27.80;;;19.45;;
41101;SDS011;26845;50.190;19.178;2022-09-23T07:21:07;28.65;;;18.60;;
41101;SDS011;26845;50.190;19.178;2022-09-23T07:23:40;29.48;;;20.65;;
41101;SDS011;26845;50.190;19.178;2022-09-23T07:26:13;28.65;;;19.73;;
41101;SDS011;26845;50.190;19.178;2022-09-23T07:28:42;29.50;;;19.65;;
41101;SDS011;26845;50.190;19.178;2022-09-23T07:31:10;27.70;;;19.70;;
41101;SDS011;26845;50.190;19.178;2022-09-23T07:33:40;28.87;;;20.20;;
41101;SDS011;26845;50.190;19.178;2022-09-23T07:36:10;29.42;;;21.07;;
41101;SDS011;26845;50.190;19.178;2022-09-23T07:38:42;27.48;;;19.60;;
41101;SDS011;26845;50.190;19.178;2022-09-23T07:41:11;33.67;;;20.80;;
41101;SDS011;26845;50.190;19.178;2022-09-23T07:43:42;32.63;;;21.20;;
41101;SDS011;26845;50.190;19.178;2022-09-23T07:46:11;30.23;;;21.45;;
41101;SDS011;26845;50.190;19.178;2022-09-23T07:48:43;31.37;;;22.77;;
41101;SDS011;26845;50.190;19.178;2022-09-23T07:51:17;35.43;;;22.87;;
41101;SDS011;26845;50.190;19.178;2022-09-23T07:53:47;34.40;;;23.35;;
41101;SDS011;26845;50.190;19.178;2022-09-23T07:56:17;36.30;;;23.90;;
41101;SDS011;26845;50.190;19.178;2022-09-23T07:58:46;36.03;;;23.80;;
41101;SDS011;26845;50.190;19.178;2022-09-23T08:01:17;31.68;;;22.55;;
41101;SDS011;26845;50.190;19.178;2022-09-23T08:03:44;32.73;;;22.30;;
41101;SDS011;26845;50.190;19.178;2022-09-23T08:06:12;34.98;;;22.80;;
41101;SDS011;26845;50.190;19.178;2022-09-23T08:08:39;41.05;;;25.32;;
41101;SDS011;26845;50.190;19.178;2022-09-23T08:11:09;37.63;;;22.97;;
41101;SDS011;26845;50.190;19.178;2022-09-23T08:13:39;39.60;;;22.75;;
41101;SDS011;26845;50.190;19.178;2022-09-23T08:16:08;34.90;;;23.50;;
41101;SDS011;26845;50.190;19.178;2022-09-23T08:18:35;32.88;;;21.75;;
41101;SDS011;26845;50.190;19.178;2022-09-23T08:21:02;30.50;;;21.23;;
41101;SDS011;26845;50.190;19.178;2022-09-23T08:23:29;35.83;;;21.90;;
41101;SDS011;26845;50.190;19.178;2022-09-23T08:25:59;29.67;;;20.83;;
41101;SDS011;26845;50.190;19.178;2022-09-23T08:28:28;35.95;;;23.20;;
41101;SDS011;26845;50.190;19.178;2022-09-23T08:30:55;35.40;;;21.30;;
41101;SDS011;26845;50.190;19.178;2022-09-23T08:33:22;32.35;;;21.65;;
41101;SDS011;26845;50.190;19.178;2022-09-23T08:35:49;33.15;;;22.45;;
41101;SDS011;26845;50.190;19.178;2022-09-23T08:38:17;29.57;;;21.27;;
41101;SDS011;26845;50.190;19.178;2022-09-23T08:40:47;31.40;;;22.70;;
41101;SDS011;26845;50.190;19.178;2022-09-23T08:43:25;28.27;;;20.35;;
41101;SDS011;26845;50.190;19.178;2022-09-23T08:45:52;30.30;;;19.32;;
41101;SDS011;26845;50.190;19.178;2022-09-23T08:48:27;24.00;;;16.45;;
41101;SDS011;26845;50.190;19.178;2022-09-23T08:51:00;23.25;;;17.87;;
41101;SDS011;26845;50.190;19.178;2022-09-23T08:53:33;22.60;;;16.10;;
41101;SDS011;26845;50.190;19.178;2022-09-23T08:56:09;21.25;;;15.48;;
41101;SDS011;26845;50.190;19.178;2022-09-23T09:07:10;20.80;;;14.58;;
41101;SDS011;26845;50.190;19.178;2022-09-23T09:15:26;23.32;;;14.87;;
41101;SDS011;26845;50.190;19.178;2022-09-23T09:17:59;17.45;;;13.03;;
41101;SDS011;26845;50.190;19.178;2022-09-23T09:26:20;21.07;;;14.87;;
41101;SDS011;26845;50.190;19.178;2022-09-23T09:29:10;18.85;;;13.55;;
41101;SDS011;26845;50.190;19.178;2022-09-23T09:31:42;18.35;;;13.43;;
41101;SDS011;26845;50.190;19.178;2022-09-23T09:37:18;23.05;;;12.50;;
41101;SDS011;26845;50.190;19.178;2022-09-23T09:39:52;18.40;;;12.05;;
41101;SDS011;26845;50.190;19.178;2022-09-23T09:42:20;14.13;;;10.80;;
41101;SDS011;26845;50.190;19.178;2022-09-23T09:44:56;17.98;;;11.38;;
41101;SDS011;26845;50.190;19.178;2022-09-23T09:47:39;17.45;;;11.12;;
41101;SDS011;26845;50.190;19.178;2022-09-23T09:50:43;14.43;;;9.78;;
41101;SDS011;26845;50.190;19.178;2022-09-23T09:56:03;13.85;;;10.08;;
41101;SDS011;26845;50.190;19.178;2022-09-23T09:58:36;14.95;;;9.85;;
41101;SDS011;26845;50.190;19.178;2022-09-23T10:01:22;12.50;;;9.40;;
41101;SDS011;26845;50.190;19.178;2022-09-23T10:04:05;14.28;;;8.98;;
41101;SDS011;26845;50.190;19.178;2022-09-23T10:06:36;12.35;;;8.65;;
41101;SDS011;26845;50.190;19.178;2022-09-23T10:14:44;10.05;;;8.18;;
41101;SDS011;26845;50.190;19.178;2022-09-23T10:17:19;13.13;;;8.48;;
41101;SDS011;26845;50.190;19.178;2022-09-23T10:19:50;10.98;;;8.60;;
41101;SDS011;26845;50.190;19.178;2022-09-23T10:22:32;13.40;;;8.43;;
41101;SDS011;26845;50.190;19.178;2022-09-23T10:25:08;11.03;;;7.60;;
41101;SDS011;26845;50.190;19.178;2022-09-23T10:27:45;11.15;;;8.35;;
41101;SDS011;26845;50.190;19.178;2022-09-23T10:32:48;11.80;;;7.33;;
41101;SDS011;26845;50.190;19.178;2022-09-23T10:35:17;10.50;;;7.30;;
41101;SDS011;26845;50.190;19.178;2022-09-23T10:40:31;11.00;;;7.45;;
41101;SDS011;26845;50.190;19.178;2022-09-23T10:43:31;14.43;;;8.00;;
41101;SDS011;26845;50.190;19.178;2022-09-23T10:46:54;10.93;;;6.90;;
41101;SDS011;26845;50.190;19.178;2022-09-23T10:58:29;6.05;;;5.08;;
41101;SDS011;26845;50.190;19.178;2022-09-23T11:07:38;6.28;;;4.65;;
41101;SDS011;26845;50.190;19.178;2022-09-23T11:16:49;5.90;;;4.35;;
41101;SDS011;26845;50.190;19.178;2022-09-23T11:22:25;5.45;;;3.52;;
41101;SDS011;26845;50.190;19.178;2022-09-23T11:25:36;6.65;;;3.80;;
41101;SDS011;26845;50.190;19.178;2022-09-23T11:42:31;8.65;;;4.47;;
41101;SDS011;26845;50.190;19.178;2022-09-23T11:45:06;4.08;;;3.67;;
41101;SDS011;26845;50.190;19.178;2022-09-23T11:47:47;4.90;;;4.12;;
41101;SDS011;26845;50.190;19.178;2022-09-23T11:53:02;5.42;;;4.20;;
41101;SDS011;26845;50.190;19.178;2022-09-23T11:55:43;4.50;;;3.70;;
41101;SDS011;26845;50.190;19.178;2022-09-23T12:00:50;5.67;;;3.90;;
41101;SDS011;26845;50.190;19.178;2022-09-23T12:03:26;6.45;;;3.52;;
41101;SDS011;26845;50.190;19.178;2022-09-23T12:06:18;5.05;;;3.47;;
41101;SDS011;26845;50.190;19.178;2022-09-23T12:08:52;6.42;;;3.47;;
41101;SDS011;26845;50.190;19.178;2022-09-23T12:11:36;5.75;;;3.98;;
41101;SDS011;26845;50.190;19.178;2022-09-23T12:25:52;4.37;;;3.33;;
41101;SDS011;26845;50.190;19.178;2022-09-23T12:28:32;6.62;;;3.42;;
41101;SDS011;26845;50.190;19.178;2022-09-23T12:31:11;5.72;;;3.77;;
41101;SDS011;26845;50.190;19.178;2022-09-23T12:33:49;5.78;;;3.22;;
41101;SDS011;26845;50.190;19.178;2022-09-23T12:36:24;7.83;;;3.90;;
41101;SDS011;26845;50.190;19.178;2022-09-23T12:39:12;5.37;;;3.75;;
41101;SDS011;26845;50.190;19.178;2022-09-23T12:42:04;6.58;;;4.05;;
41101;SDS011;26845;50.190;19.178;2022-09-23T12:44:40;4.45;;;3.85;;
41101;SDS011;26845;50.190;19.178;2022-09-23T12:49:55;5.50;;;3.92;;
41101;SDS011;26845;50.190;19.178;2022-09-23T12:52:24;4.05;;;3.45;;
41101;SDS011;26845;50.190;19.178;2022-09-23T12:57:48;4.97;;;3.27;;
41101;SDS011;26845;50.190;19.178;2022-09-23T13:00:24;5.60;;;3.75;;
41101;SDS011;26845;50.190;19.178;2022-09-23T13:02:54;4.55;;;3.35;;
41101;SDS011;26845;50.190;19.178;2022-09-23T13:08:46;4.62;;;3.20;;
41101;SDS011;26845;50.190;19.178;2022-09-23T13:11:25;3.90;;;3.50;;
41101;SDS011;26845;50.190;19.178;2022-09-23T13:13:55;5.53;;;3.37;;
41101;SDS011;26845;50.190;19.178;2022-09-23T13:16:35;5.17;;;3.58;;
41101;SDS011;26845;50.190;19.178;2022-09-23T13:24:34;5.62;;;3.52;;
41101;SDS011;26845;50.190;19.178;2022-09-23T13:32:36;5.87;;;3.52;;
41101;SDS011;26845;50.190;19.178;2022-09-23T13:37:53;5.60;;;3.40;;
41101;SDS011;26845;50.190;19.178;2022-09-23T13:40:22;6.92;;;3.92;;
41101;SDS011;26845;50.190;19.178;2022-09-23T13:45:26;3.83;;;3.40;;
41101;SDS011;26845;50.190;19.178;2022-09-23T13:48:00;6.78;;;3.40;;
41101;SDS011;26845;50.190;19.178;2022-09-23T13:50:36;5.40;;;3.47;;
41101;SDS011;26845;50.190;19.178;2022-09-23T13:53:07;4.87;;;3.47;;
41101;SDS011;26845;50.190;19.178;2022-09-23T13:55:37;5.80;;;3.80;;
41101;SDS011;26845;50.190;19.178;2022-09-23T13:58:19;4.05;;;3.72;;
41101;SDS011;26845;50.190;19.178;2022-09-23T14:00:49;5.12;;;3.65;;
41101;SDS011;26845;50.190;19.178;2022-09-23T14:06:08;4.33;;;3.83;;
41101;SDS011;26845;50.190;19.178;2022-09-23T14:08:48;4.62;;;3.70;;
41101;SDS011;26845;50.190;19.178;2022-09-23T14:11:16;3.92;;;3.08;;
41101;SDS011;26845;50.190;19.178;2022-09-23T14:13:48;4.55;;;3.50;;
41101;SDS011;26845;50.190;19.178;2022-09-23T14:16:18;8.25;;;3.70;;
41101;SDS011;26845;50.190;19.178;2022-09-23T14:18:46;5.45;;;3.72;;
41101;SDS011;26845;50.190;19.178;2022-09-23T14:21:32;4.47;;;3.75;;
41101;SDS011;26845;50.190;19.178;2022-09-23T14:27:08;9.85;;;3.45;;
41101;SDS011;26845;50.190;19.178;2022-09-23T14:29:39;5.50;;;3.62;;
41101;SDS011;26845;50.190;19.178;2022-09-23T14:32:13;4.95;;;3.72;;
41101;SDS011;26845;50.190;19.178;2022-09-23T14:34:49;3.92;;;3.22;;
41101;SDS011;26845;50.190;19.178;2022-09-23T14:40:25;5.92;;;3.27;;
41101;SDS011;26845;50.190;19.178;2022-09-23T14:45:51;18.10;;;4.50;;
41101;SDS011;26845;50.190;19.178;2022-09-23T14:48:28;9.83;;;4.05;;
41101;SDS011;26845;50.190;19.178;2022-09-23T14:51:01;4.62;;;3.05;;
41101;SDS011;26845;50.190;19.178;2022-09-23T14:53:34;4.67;;;3.20;;
41101;SDS011;26845;50.190;19.178;2022-09-23T14:56:10;3.47;;;2.83;;
41101;SDS011;26845;50.190;19.178;2022-09-23T14:58:42;5.25;;;3.00;;
41101;SDS011;26845;50.190;19.178;2022-09-23T15:04:13;2.70;;;2.42;;
41101;SDS011;26845;50.190;19.178;2022-09-23T15:09:29;3.17;;;2.87;;
41101;SDS011;26845;50.190;19.178;2022-09-23T15:12:01;4.87;;;2.85;;
41101;SDS011;26845;50.190;19.178;2022-09-23T15:14:35;4.45;;;2.55;;
41101;SDS011;26845;50.190;19.178;2022-09-23T15:17:13;3.70;;;3.02;;
41101;SDS011;26845;50.190;19.178;2022-09-23T15:19:55;7.92;;;2.90;;
41101;SDS011;26845;50.190;19.178;2022-09-23T15:22:26;6.53;;;3.10;;
41101;SDS011;26845;50.190;19.178;2022-09-23T15:24:53;4.17;;;2.83;;
41101;SDS011;26845;50.190;19.178;2022-09-23T15:27:53;3.80;;;2.90;;
41101;SDS011;26845;50.190;19.178;2022-09-23T15:30:26;6.17;;;2.50;;
41101;SDS011;26845;50.190;19.178;2022-09-23T15:32:53;3.22;;;2.50;;
41101;SDS011;26845;50.190;19.178;2022-09-23T15:35:20;5.87;;;3.00;;
41101;SDS011;26845;50.190;19.178;2022-09-23T15:37:55;5.53;;;2.52;;
41101;SDS011;26845;50.190;19.178;2022-09-23T15:40:26;4.33;;;2.35;;
41101;SDS011;26845;50.190;19.178;2022-09-23T15:42:58;5.17;;;2.85;;
41101;SDS011;26845;50.190;19.178;2022-09-23T15:45:43;3.60;;;2.47;;
41101;SDS011;26845;50.190;19.178;2022-09-23T15:48:22;3.17;;;2.52;;
41101;SDS011;26845;50.190;19.178;2022-09-23T15:50:54;6.37;;;3.00;;
41101;SDS011;26845;50.190;19.178;2022-09-23T15:53:25;4.95;;;2.67;;
41101;SDS011;26845;50.190;19.178;2022-09-23T15:55:53;4.28;;;2.75;;
41101;SDS011;26845;50.190;19.178;2022-09-23T15:58:20;3.72;;;2.60;;
41101;SDS011;26845;50.190;19.178;2022-09-23T16:00:48;5.90;;;2.90;;
41101;SDS011;26845;50.190;19.178;2022-09-23T16:05:46;4.97;;;3.33;;
41101;SDS011;26845;50.190;19.178;2022-09-23T16:08:15;6.30;;;2.83;;
41101;SDS011;26845;50.190;19.178;2022-09-23T16:10:43;4.75;;;3.10;;
41101;SDS011;26845;50.190;19.178;2022-09-23T16:13:11;5.50;;;3.27;;
41101;SDS011;26845;50.190;19.178;2022-09-23T16:15:39;4.00;;;3.30;;
41101;SDS011;26845;50.190;19.178;2022-09-23T16:18:07;4.78;;;3.27;;
41101;SDS011;26845;50.190;19.178;2022-09-23T16:20:37;7.10;;;3.92;;
41101;SDS011;26845;50.190;19.178;2022-09-23T16:26:09;6.80;;;3.50;;
41101;SDS011;26845;50.190;19.178;2022-09-23T16:28:44;7.20;;;3.55;;
41101;SDS011;26845;50.190;19.178;2022-09-23T16:31:13;5.75;;;3.72;;
41101;SDS011;26845;50.190;19.178;2022-09-23T16:38:53;8.93;;;3.80;;
41101;SDS011;26845;50.190;19.178;2022-09-23T16:41:23;7.60;;;4.42;;
41101;SDS011;26845;50.190;19.178;2022-09-23T16:43:54;10.25;;;4.62;;
41101;SDS011;26845;50.190;19.178;2022-09-23T16:46:21;6.53;;;4.12;;
41101;SDS011;26845;50.190;19.178;2022-09-23T16:48:51;9.18;;;4.47;;
41101;SDS011;26845;50.190;19.178;2022-09-23T16:51:19;9.38;;;4.95;;
41101;SDS011;26845;50.190;19.178;2022-09-23T16:56:17;8.03;;;4.67;;
41101;SDS011;26845;50.190;19.178;2022-09-23T17:01:15;9.18;;;4.90;;
41101;SDS011;26845;50.190;19.178;2022-09-23T17:04:06;9.48;;;5.55;;
41101;SDS011;26845;50.190;19.178;2022-09-23T17:06:36;8.48;;;4.75;;
41101;SDS011;26845;50.190;19.178;2022-09-23T17:09:14;10.05;;;4.62;;
41101;SDS011;26845;50.190;19.178;2022-09-23T17:11:44;6.67;;;4.47;;
41101;SDS011;26845;50.190;19.178;2022-09-23T17:14:14;9.55;;;4.62;;
41101;SDS011;26845;50.190;19.178;2022-09-23T17:16:41;9.78;;;4.90;;
41101;SDS011;26845;50.190;19.178;2022-09-23T17:19:09;9.53;;;4.25;;
41101;SDS011;26845;50.190;19.178;2022-09-23T17:21:37;7.10;;;4.92;;
41101;SDS011;26845;50.190;19.178;2022-09-23T17:24:04;10.43;;;5.00;;
41101;SDS011;26845;50.190;19.178;2022-09-23T17:26:32;8.28;;;5.17;;
41101;SDS011;26845;50.190;19.178;2022-09-23T17:28:59;9.35;;;5.35;;
41101;SDS011;26845;50.190;19.178;2022-09-23T17:31:27;11.70;;;5.92;;
41101;SDS011;26845;50.190;19.178;2022-09-23T17:33:53;10.30;;;5.83;;
41101;SDS011;26845;50.190;19.178;2022-09-23T17:36:20;10.32;;;6.55;;
41101;SDS011;26845;50.190;19.178;2022-09-23T17:38:47;11.40;;;5.97;;
41101;SDS011;26845;50.190;19.178;2022-09-23T17:43:43;11.93;;;6.45;;
41101;SDS011;26845;50.190;19.178;2022-09-23T17:46:12;13.98;;;6.90;;
41101;SDS011;26845;50.190;19.178;2022-09-23T17:48:43;11.43;;;6.83;;
41101;SDS011;26845;50.190;19.178;2022-09-23T17:51:11;12.75;;;6.00;;
41101;SDS011;26845;50.190;19.178;2022-09-23T17:53:42;11.45;;;6.80;;
41101;SDS011;26845;50.190;19.178;2022-09-23T17:58:45;15.83;;;6.87;;
41101;SDS011;26845;50.190;19.178;2022-09-23T18:01:15;14.95;;;7.95;;
41101;SDS011;26845;50.190;19.178;2022-09-23T18:03:58;19.92;;;9.63;;
41101;SDS011;26845;50.190;19.178;2022-09-23T18:06:27;18.75;;;9.68;;
41101;SDS011;26845;50.190;19.178;2022-09-23T18:08:59;20.55;;;9.45;;
41101;SDS011;26845;50.190;19.178;2022-09-23T18:13:59;18.60;;;10.43;;
41101;SDS011;26845;50.190;19.178;2022-09-23T18:16:29;14.15;;;8.48;;
41101;SDS011;26845;50.190;19.178;2022-09-23T18:19:02;20.77;;;9.65;;
41101;SDS011;26845;50.190;19.178;2022-09-23T18:21:31;21.42;;;8.93;;
41101;SDS011;26845;50.190;19.178;2022-09-23T18:26:27;21.93;;;11.28;;
41101;SDS011;26845;50.190;19.178;2022-09-23T18:28:56;23.22;;;14.00;;
41101;SDS011;26845;50.190;19.178;2022-09-23T18:31:26;28.67;;;13.38;;